createdAt,value
2022-12-16T00:00:14.893Z,32.07
2022-12-16T00:02:42.571Z,32.17
2022-12-16T00:05:09.605Z,32.67
2022-12-16T00:07:36.527Z,32.93
2022-12-16T00:10:04.012Z,30.97
2022-12-16T00:12:30.901Z,30.60
2022-12-16T00:14:57.827Z,32.93
2022-12-16T00:17:24.857Z,33.60
2022-12-16T00:19:51.814Z,34.07
2022-12-16T00:22:19.116Z,35.83
2022-12-16T00:24:46.082Z,32.97
2022-12-16T00:27:13.012Z,33.33
2022-12-16T00:29:39.931Z,32.30
2022-12-16T00:32:06.926Z,32.10
2022-12-16T00:34:33.978Z,33.17
2022-12-16T00:37:00.953Z,31.70
2022-12-16T00:39:27.925Z,31.27
2022-12-16T00:41:54.867Z,32.20
2022-12-16T00:44:21.932Z,32.77
2022-12-16T00:46:48.856Z,35.03
2022-12-16T00:49:16.023Z,32.43
2022-12-16T00:51:42.998Z,33.13
2022-12-16T00:54:09.947Z,34.40
2022-12-16T00:56:37.048Z,35.57
2022-12-16T00:59:03.973Z,35.20
2022-12-16T01:01:31.304Z,34.60
2022-12-16T01:03:58.515Z,36.37
2022-12-16T01:06:25.579Z,33.70
2022-12-16T01:08:52.593Z,36.47
2022-12-16T01:11:21.950Z,34.63
2022-12-16T01:13:52.690Z,33.90
2022-12-16T01:16:22.620Z,33.27
2022-12-16T01:18:49.582Z,33.00
2022-12-16T01:21:16.944Z,33.13
2022-12-16T01:23:43.946Z,35.13
2022-12-16T01:26:17.065Z,36.07
2022-12-16T01:28:44.773Z,33.90
2022-12-16T01:31:12.517Z,36.47
2022-12-16T01:33:39.776Z,34.80
2022-12-16T01:36:08.653Z,35.70
2022-12-16T01:38:36.674Z,34.60
2022-12-16T01:41:04.995Z,34.37
2022-12-16T01:43:38.184Z,35.53
2022-12-16T01:46:21.262Z,33.93
2022-12-16T01:48:53.093Z,38.00
2022-12-16T01:51:26.387Z,36.40
2022-12-16T01:53:59.412Z,36.13
2022-12-16T01:56:30.893Z,33.13
2022-12-16T01:58:58.496Z,37.27
2022-12-16T02:01:26.198Z,37.27
2022-12-16T02:03:56.585Z,37.97
2022-12-16T02:06:23.931Z,38.10
2022-12-16T02:08:57.370Z,39.57
2022-12-16T02:11:42.168Z,36.30
2022-12-16T02:14:24.446Z,35.90
2022-12-16T02:17:03.006Z,37.13
2022-12-16T02:19:55.228Z,36.83
2022-12-16T02:22:24.836Z,40.77
2022-12-16T02:25:14.673Z,39.77
2022-12-16T02:28:13.498Z,39.13
2022-12-16T02:30:56.943Z,40.77
2022-12-16T02:33:50.885Z,39.47
2022-12-16T02:36:41.955Z,40.63
2022-12-16T02:39:16.210Z,37.80
2022-12-16T02:41:49.734Z,38.97
2022-12-16T02:44:17.860Z,37.37
2022-12-16T02:46:55.529Z,39.43
2022-12-16T02:49:22.437Z,39.70
2022-12-16T02:51:50.146Z,41.17
2022-12-16T02:54:17.895Z,41.67
2022-12-16T02:57:43.778Z,40.73
2022-12-16T03:00:22.276Z,39.97
2022-12-16T03:03:08.142Z,40.50
2022-12-16T03:05:43.029Z,39.83
2022-12-16T03:08:16.208Z,39.10
2022-12-16T03:10:54.483Z,43.97
2022-12-16T03:13:23.976Z,39.97
2022-12-16T03:15:53.945Z,36.90
2022-12-16T03:18:22.424Z,37.83
2022-12-16T03:21:01.450Z,37.63
2022-12-16T03:23:38.390Z,41.77
2022-12-16T03:26:15.989Z,39.43
2022-12-16T03:28:52.006Z,38.27
2022-12-16T03:31:43.002Z,38.43
2022-12-16T03:34:52.125Z,37.80
2022-12-16T03:37:22.637Z,38.30
2022-12-16T03:39:55.829Z,34.90
2022-12-16T03:42:24.205Z,33.40
2022-12-16T03:44:51.353Z,34.23
2022-12-16T03:47:23.454Z,35.17
2022-12-16T03:49:51.092Z,36.43
2022-12-16T03:52:18.110Z,36.83
2022-12-16T03:54:44.986Z,36.87
2022-12-16T03:57:15.404Z,36.87
2022-12-16T03:59:42.976Z,35.40
2022-12-16T04:02:10.280Z,34.77
2022-12-16T04:04:37.349Z,30.93
2022-12-16T04:07:24.473Z,30.07
2022-12-16T04:09:52.693Z,27.47
2022-12-16T04:12:39.313Z,26.80
2022-12-16T04:15:19.769Z,26.90
2022-12-16T04:18:04.980Z,27.37
2022-12-16T04:20:58.183Z,30.27
2022-12-16T04:23:46.648Z,29.17
2022-12-16T04:26:13.947Z,29.03
2022-12-16T04:28:40.888Z,27.70
2022-12-16T04:31:08.017Z,29.47
2022-12-16T04:33:53.652Z,29.23
2022-12-16T04:36:39.160Z,29.67
2022-12-16T04:39:24.617Z,30.17
2022-12-16T04:42:24.855Z,30.37
2022-12-16T04:45:10.323Z,31.83
2022-12-16T04:47:57.644Z,30.97
2022-12-16T04:50:43.446Z,31.33
2022-12-16T04:53:29.155Z,33.60
2022-12-16T04:56:14.814Z,33.43
2022-12-16T04:59:00.225Z,33.73
2022-12-16T05:01:45.858Z,35.17
2022-12-16T05:04:31.107Z,35.67
2022-12-16T05:07:16.619Z,34.30
2022-12-16T05:10:02.163Z,34.83
2022-12-16T05:12:47.593Z,34.57
2022-12-16T05:15:33.132Z,34.87
2022-12-16T05:18:26.748Z,36.10
2022-12-16T05:21:12.280Z,36.10
2022-12-16T05:23:59.434Z,35.97
2022-12-16T05:26:44.920Z,35.43
2022-12-16T05:29:30.383Z,33.90
2022-12-16T05:32:15.853Z,34.73
2022-12-16T05:35:01.369Z,34.67
2022-12-16T05:37:46.885Z,32.17
2022-12-16T05:40:32.140Z,31.10
2022-12-16T05:43:17.592Z,30.33
2022-12-16T05:46:02.941Z,29.27
2022-12-16T05:48:48.709Z,34.97
2022-12-16T05:51:34.155Z,35.70
2022-12-16T05:54:19.863Z,33.43
2022-12-16T05:57:05.256Z,33.30
2022-12-16T05:59:52.741Z,34.47
2022-12-16T06:02:38.396Z,34.73
2022-12-16T06:05:24.238Z,33.50
2022-12-16T06:08:12.563Z,32.73
2022-12-16T06:10:58.188Z,34.63
2022-12-16T06:13:43.770Z,32.77
2022-12-16T06:16:29.596Z,32.97
2022-12-16T06:19:14.727Z,32.53
2022-12-16T06:21:59.912Z,31.77
2022-12-16T06:24:45.495Z,32.33
2022-12-16T06:27:30.646Z,32.37
2022-12-16T06:30:16.249Z,30.67
2022-12-16T06:33:01.783Z,31.57
2022-12-16T06:35:47.410Z,33.17
2022-12-16T06:38:33.025Z,30.37
2022-12-16T06:41:18.393Z,29.37
2022-12-16T06:44:04.005Z,28.20
2022-12-16T06:46:49.412Z,27.50
2022-12-16T06:49:34.948Z,26.53
2022-12-16T06:52:20.405Z,29.27
2022-12-16T06:55:05.830Z,29.77
2022-12-16T06:57:51.369Z,28.07
2022-12-16T07:00:37.495Z,29.67
2022-12-16T07:03:23.075Z,32.13
2022-12-16T07:06:26.536Z,30.43
2022-12-16T07:09:11.906Z,28.33
2022-12-16T07:11:57.627Z,31.80
2022-12-16T07:14:43.006Z,29.77
2022-12-16T07:17:28.503Z,28.03
2022-12-16T07:20:14.056Z,29.83
2022-12-16T07:23:11.899Z,32.27
2022-12-16T07:25:59.059Z,34.07
2022-12-16T07:28:44.516Z,34.93
2022-12-16T07:31:30.161Z,38.93
2022-12-16T07:34:15.548Z,36.47
2022-12-16T07:37:01.112Z,37.57
2022-12-16T07:39:51.343Z,34.23
2022-12-16T07:42:40.452Z,29.87
2022-12-16T07:45:26.518Z,27.10
2022-12-16T07:48:12.391Z,28.10
2022-12-16T07:50:57.746Z,30.50
2022-12-16T07:53:43.743Z,32.20
2022-12-16T07:56:29.489Z,30.40
2022-12-16T07:59:15.011Z,31.03
2022-12-16T08:02:00.590Z,30.80
2022-12-16T08:04:45.948Z,37.07
2022-12-16T08:07:31.414Z,38.77
2022-12-16T08:10:17.133Z,42.67
2022-12-16T08:13:02.524Z,41.40
2022-12-16T08:15:48.048Z,43.80
2022-12-16T08:18:33.662Z,44.47
2022-12-16T08:21:19.108Z,44.60
2022-12-16T08:24:04.669Z,40.20
2022-12-16T08:26:50.129Z,36.90
2022-12-16T08:29:44.911Z,37.97
2022-12-16T08:32:32.469Z,38.53
2022-12-16T08:35:18.867Z,38.73
2022-12-16T08:38:09.051Z,38.60
2022-12-16T08:41:03.325Z,32.67
2022-12-16T08:43:55.096Z,31.60
2022-12-16T08:46:46.523Z,27.80
2022-12-16T08:49:32.194Z,24.93
2022-12-16T08:52:17.849Z,21.30
2022-12-16T08:55:03.654Z,22.07
2022-12-16T08:57:48.915Z,21.23
2022-12-16T09:00:34.780Z,19.90
2022-12-16T09:03:20.595Z,20.47
2022-12-16T09:06:06.358Z,20.30
2022-12-16T09:08:52.120Z,22.93
2022-12-16T09:11:37.976Z,28.77
2022-12-16T09:14:23.285Z,31.40
2022-12-16T09:17:08.540Z,34.80
2022-12-16T09:19:55.228Z,34.70
2022-12-16T09:22:40.958Z,36.73
2022-12-16T09:25:26.716Z,37.17
2022-12-16T09:28:12.288Z,37.93
2022-12-16T09:30:57.634Z,37.87
2022-12-16T09:33:43.044Z,39.77
2022-12-16T09:36:28.351Z,36.43
2022-12-16T09:39:13.818Z,38.63
2022-12-16T09:42:03.656Z,38.83
2022-12-16T09:45:13.944Z,42.27
2022-12-16T09:48:57.005Z,42.73
2022-12-16T09:51:43.922Z,42.67
2022-12-16T09:54:36.046Z,45.13
2022-12-16T09:57:25.723Z,44.30
2022-12-16T10:00:20.813Z,40.43
2022-12-16T10:03:09.005Z,44.40
2022-12-16T10:06:35.708Z,42.73
2022-12-16T10:09:45.874Z,41.60
2022-12-16T10:13:03.818Z,41.53
2022-12-16T10:16:15.248Z,37.03
2022-12-16T10:19:19.566Z,37.77
2022-12-16T10:22:19.182Z,35.60
2022-12-16T10:25:27.528Z,35.97
2022-12-16T10:28:27.185Z,33.70
2022-12-16T10:31:12.629Z,32.53
2022-12-16T10:33:58.863Z,33.07
2022-12-16T10:36:45.113Z,31.67
2022-12-16T10:39:57.982Z,32.03
2022-12-16T10:42:50.364Z,31.57
2022-12-16T10:45:50.645Z,30.83
2022-12-16T10:48:56.473Z,31.37
2022-12-16T10:51:46.279Z,32.23
2022-12-16T10:54:38.805Z,31.43
2022-12-16T10:57:50.418Z,28.63
2022-12-16T11:01:01.204Z,29.17
2022-12-16T11:03:51.066Z,28.80
2022-12-16T11:06:58.183Z,29.80
2022-12-16T11:09:51.568Z,30.97
2022-12-16T11:12:50.464Z,33.23
2022-12-16T11:15:46.096Z,28.03
2022-12-16T11:18:41.799Z,27.43
2022-12-16T11:21:38.669Z,26.93
2022-12-16T11:24:33.426Z,26.27
2022-12-16T11:27:42.639Z,28.50
2022-12-16T11:30:41.825Z,24.57
2022-12-16T11:33:43.040Z,24.97
2022-12-16T11:36:37.857Z,23.73
2022-12-16T11:39:24.669Z,22.47
2022-12-16T11:42:14.120Z,18.80
2022-12-16T11:45:05.061Z,18.97
2022-12-16T11:48:02.522Z,19.53
2022-12-16T11:50:52.930Z,18.80
2022-12-16T11:54:07.477Z,17.13
2022-12-16T11:57:01.017Z,18.10
2022-12-16T11:59:59.563Z,16.47
2022-12-16T12:03:13.742Z,17.13
2022-12-16T12:06:29.868Z,17.17
2022-12-16T12:09:29.183Z,16.70
2022-12-16T12:12:33.391Z,15.87
2022-12-16T12:15:39.548Z,14.90
2022-12-16T12:18:33.680Z,13.33
2022-12-16T12:21:33.237Z,12.87
2022-12-16T12:24:39.194Z,14.20
2022-12-16T12:27:48.037Z,14.03
2022-12-16T12:30:43.512Z,13.90
2022-12-16T12:33:47.172Z,14.60
2022-12-16T12:36:50.651Z,14.07
2022-12-16T12:39:36.127Z,14.47
2022-12-16T12:42:49.787Z,14.40
2022-12-16T12:45:56.832Z,12.50
2022-12-16T12:48:57.812Z,12.63
2022-12-16T12:52:18.062Z,11.97
2022-12-16T12:55:37.955Z,11.03
2022-12-16T12:58:27.963Z,11.07
2022-12-16T13:01:18.285Z,10.17
2022-12-16T13:04:29.514Z,8.33
2022-12-16T13:07:15.743Z,7.67
2022-12-16T13:10:01.595Z,7.73
2022-12-16T13:12:52.827Z,7.30
2022-12-16T13:15:58.026Z,6.60
2022-12-16T13:18:51.687Z,6.63
2022-12-16T13:21:56.543Z,6.77
2022-12-16T13:24:45.341Z,6.27
2022-12-16T13:27:34.444Z,6.00
2022-12-16T13:30:37.834Z,6.03
2022-12-16T13:33:43.913Z,5.87
2022-12-16T13:36:31.802Z,6.67
2022-12-16T13:39:45.937Z,6.83
2022-12-16T13:43:07.626Z,6.23
2022-12-16T13:46:23.516Z,6.53
2022-12-16T13:49:08.836Z,5.80
2022-12-16T13:51:57.136Z,5.73
2022-12-16T13:54:55.072Z,5.93
2022-12-16T13:57:43.465Z,5.47
2022-12-16T14:00:44.240Z,5.90
2022-12-16T14:04:02.874Z,5.97
2022-12-16T14:06:50.298Z,5.80
2022-12-16T14:10:00.059Z,5.57
2022-12-16T14:13:06.770Z,4.43
2022-12-16T14:16:20.544Z,3.30
2022-12-16T14:19:30.392Z,3.50
2022-12-16T14:22:36.415Z,3.30
2022-12-16T14:25:41.930Z,3.00
2022-12-16T14:28:55.111Z,3.30
2022-12-16T14:31:52.798Z,2.97
2022-12-16T14:34:45.107Z,3.00
2022-12-16T14:37:48.365Z,3.70
2022-12-16T14:40:49.651Z,3.17
2022-12-16T14:43:43.378Z,3.23
2022-12-16T14:46:55.367Z,4.00
2022-12-16T14:50:03.972Z,3.63
2022-12-16T14:52:49.281Z,4.10
2022-12-16T14:55:39.907Z,3.70
2022-12-16T14:58:36.301Z,3.50
2022-12-16T15:01:41.620Z,3.63
2022-12-16T15:04:39.180Z,3.10
2022-12-16T15:07:31.676Z,3.60
2022-12-16T15:10:21.897Z,3.73
2022-12-16T15:13:08.712Z,3.47
2022-12-16T15:16:07.832Z,3.27
2022-12-16T15:18:57.708Z,3.60
2022-12-16T15:21:43.644Z,3.70
2022-12-16T15:24:43.735Z,3.63
2022-12-16T15:27:37.807Z,3.20
2022-12-16T15:31:03.021Z,3.57
2022-12-16T15:33:57.928Z,3.83
2022-12-16T15:36:54.680Z,4.97
2022-12-16T15:39:54.650Z,5.63
2022-12-16T15:42:48.919Z,5.20
2022-12-16T15:45:43.085Z,5.10
2022-12-16T15:48:44.040Z,5.23
2022-12-16T15:51:50.964Z,6.60
2022-12-16T15:54:42.127Z,6.00
2022-12-16T15:57:50.305Z,6.30
2022-12-16T16:00:48.465Z,6.33
2022-12-16T16:03:49.494Z,6.20
2022-12-16T16:06:42.988Z,7.43
2022-12-16T16:09:33.597Z,7.47
2022-12-16T16:12:19.131Z,7.50
2022-12-16T16:15:04.700Z,7.60
2022-12-16T16:17:50.260Z,8.63
2022-12-16T16:20:37.257Z,7.87
2022-12-16T16:23:23.302Z,7.93
2022-12-16T16:26:08.699Z,8.97
2022-12-16T16:28:54.046Z,11.87
2022-12-16T16:31:39.481Z,8.83
2022-12-16T16:34:25.421Z,8.67
2022-12-16T16:37:16.058Z,8.07
2022-12-16T16:40:03.380Z,8.33
2022-12-16T16:42:48.894Z,7.57
2022-12-16T16:45:34.964Z,8.10
2022-12-16T16:48:36.848Z,8.20
2022-12-16T16:51:23.927Z,8.80
2022-12-16T16:54:09.617Z,13.13
2022-12-16T16:56:57.387Z,12.10
2022-12-16T16:59:43.393Z,10.60
2022-12-16T17:02:41.099Z,10.37
2022-12-16T17:05:29.691Z,8.67
2022-12-16T17:08:15.867Z,9.43
2022-12-16T17:11:01.980Z,9.80
2022-12-16T17:13:47.717Z,9.63
2022-12-16T17:16:34.084Z,9.63
2022-12-16T17:19:19.394Z,9.53
2022-12-16T17:22:04.711Z,10.10
2022-12-16T17:24:53.882Z,10.20
2022-12-16T17:27:44.249Z,10.33
2022-12-16T17:30:47.040Z,11.00
2022-12-16T17:33:35.303Z,9.70
2022-12-16T17:36:21.347Z,10.97
2022-12-16T17:39:07.609Z,11.37
2022-12-16T17:41:53.628Z,11.60
2022-12-16T17:44:39.156Z,11.70
2022-12-16T17:47:24.554Z,12.00
2022-12-16T17:50:10.006Z,11.67
2022-12-16T17:52:55.415Z,11.80
2022-12-16T17:55:41.070Z,11.37
2022-12-16T17:58:26.573Z,13.03
2022-12-16T18:01:12.136Z,11.43
2022-12-16T18:03:57.695Z,11.23
2022-12-16T18:06:47.071Z,11.63
2022-12-16T18:09:32.613Z,11.23
2022-12-16T18:12:19.095Z,11.50
2022-12-16T18:15:04.263Z,11.43
2022-12-16T18:17:49.796Z,12.03
2022-12-16T18:20:35.323Z,11.93
2022-12-16T18:23:21.000Z,12.93
2022-12-16T18:26:20.628Z,12.00
2022-12-16T18:29:06.430Z,11.90
2022-12-16T18:31:52.001Z,11.60
2022-12-16T18:34:38.293Z,10.87
2022-12-16T18:37:24.270Z,11.10
2022-12-16T18:40:09.912Z,11.20
2022-12-16T18:42:55.412Z,12.13
2022-12-16T18:45:41.140Z,12.53
2022-12-16T18:48:26.461Z,13.83
2022-12-16T18:51:18.759Z,14.63
2022-12-16T18:54:04.681Z,13.60
2022-12-16T18:56:50.384Z,13.87
2022-12-16T18:59:35.762Z,14.13
2022-12-16T19:02:21.467Z,12.03
2022-12-16T19:05:06.807Z,12.27
2022-12-16T19:07:52.046Z,12.10
2022-12-16T19:10:37.689Z,11.87
2022-12-16T19:13:22.971Z,12.40
2022-12-16T19:16:16.151Z,11.67
2022-12-16T19:19:02.209Z,13.07
2022-12-16T19:24:14.044Z,13.00
2022-12-16T19:26:59.573Z,13.30
2022-12-16T19:29:44.797Z,12.53
2022-12-16T19:32:30.182Z,14.13
2022-12-16T19:35:15.551Z,14.17
2022-12-16T19:38:00.726Z,13.83
2022-12-16T23:01:11.227Z,15.00
2022-12-16T23:03:56.579Z,17.27
2022-12-16T23:06:41.924Z,17.57
2022-12-16T23:09:27.617Z,18.50
2022-12-16T23:12:13.867Z,18.00
2022-12-16T23:14:59.119Z,19.10
2022-12-16T23:17:44.353Z,19.30
2022-12-16T23:20:29.940Z,18.77
2022-12-16T23:23:15.978Z,18.43
2022-12-16T23:26:01.263Z,17.87
2022-12-16T23:28:46.858Z,19.70
2022-12-16T23:31:32.294Z,19.10
2022-12-16T23:34:18.175Z,18.90
2022-12-16T23:37:03.803Z,20.57
2022-12-16T23:39:49.265Z,18.73
2022-12-16T23:42:34.438Z,20.00
2022-12-16T23:45:19.873Z,18.17
2022-12-16T23:48:05.008Z,17.43
2022-12-16T23:50:50.453Z,16.97
2022-12-16T23:53:36.251Z,16.43
2022-12-16T23:56:26.903Z,18.90
2022-12-16T23:59:12.433Z,17.27
